sensor_id;sensor_type;location;lat;lon;timestamp;P1;durP1;ratioP1;P2;durP2;ratioP2
2558;SDS011;1289;53.488;10.006;2023-10-31T00:01:33;8.90;;;8.10;;
2558;SDS011;1289;53.488;10.006;2023-10-31T00:03:59;10.37;;;7.53;;
2558;SDS011;1289;53.488;10.006;2023-10-31T00:06:26;7.80;;;7.00;;
2558;SDS011;1289;53.488;10.006;2023-10-31T00:08:54;8.53;;;7.73;;
2558;SDS011;1289;53.488;10.006;2023-10-31T00:11:27;11.17;;;8.20;;
2558;SDS011;1289;53.488;10.006;2023-10-31T00:13:53;9.13;;;7.80;;
2558;SDS011;1289;53.488;10.006;2023-10-31T00:16:20;9.03;;;7.80;;
2558;SDS011;1289;53.488;10.006;2023-10-31T00:18:46;8.83;;;8.03;;
2558;SDS011;1289;53.488;10.006;2023-10-31T00:21:13;10.03;;;9.03;;
2558;SDS011;1289;53.488;10.006;2023-10-31T00:23:43;9.90;;;8.20;;
2558;SDS011;1289;53.488;10.006;2023-10-31T00:26:11;12.87;;;9.00;;
2558;SDS011;1289;53.488;10.006;2023-10-31T00:28:42;11.03;;;9.90;;
2558;SDS011;1289;53.488;10.006;2023-10-31T00:31:09;10.13;;;9.13;;
2558;SDS011;1289;53.488;10.006;2023-10-31T00:33:36;9.33;;;8.43;;
2558;SDS011;1289;53.488;10.006;2023-10-31T00:36:03;10.97;;;8.93;;
2558;SDS011;1289;53.488;10.006;2023-10-31T00:38:31;14.13;;;9.90;;
2558;SDS011;1289;53.488;10.006;2023-10-31T00:40:57;10.60;;;9.60;;
2558;SDS011;1289;53.488;10.006;2023-10-31T00:43:25;10.97;;;9.90;;
2558;SDS011;1289;53.488;10.006;2023-10-31T00:45:52;11.20;;;10.10;;
2558;SDS011;1289;53.488;10.006;2023-10-31T00:48:19;10.30;;;9.30;;
2558;SDS011;1289;53.488;10.006;2023-10-31T00:50:45;10.83;;;8.93;;
2558;SDS011;1289;53.488;10.006;2023-10-31T00:53:12;12.27;;;10.93;;
2558;SDS011;1289;53.488;10.006;2023-10-31T00:55:39;10.53;;;8.90;;
2558;SDS011;1289;53.488;10.006;2023-10-31T00:58:06;10.60;;;9.50;;
2558;SDS011;1289;53.488;10.006;2023-10-31T01:00:34;10.50;;;9.43;;
2558;SDS011;1289;53.488;10.006;2023-10-31T01:03:02;10.63;;;9.23;;
2558;SDS011;1289;53.488;10.006;2023-10-31T01:05:29;11.33;;;10.13;;
2558;SDS011;1289;53.488;10.006;2023-10-31T01:07:55;11.40;;;9.57;;
2558;SDS011;1289;53.488;10.006;2023-10-31T01:10:27;11.53;;;10.23;;
2558;SDS011;1289;53.488;10.006;2023-10-31T01:12:53;10.83;;;9.20;;
2558;SDS011;1289;53.488;10.006;2023-10-31T01:15:21;12.07;;;9.83;;
2558;SDS011;1289;53.488;10.006;2023-10-31T01:17:49;14.93;;;9.53;;
2558;SDS011;1289;53.488;10.006;2023-10-31T01:20:15;10.50;;;9.50;;
2558;SDS011;1289;53.488;10.006;2023-10-31T01:22:41;10.67;;;9.67;;
2558;SDS011;1289;53.488;10.006;2023-10-31T01:25:08;12.73;;;9.70;;
2558;SDS011;1289;53.488;10.006;2023-10-31T01:27:35;13.80;;;9.23;;
2558;SDS011;1289;53.488;10.006;2023-10-31T01:30:03;11.00;;;8.73;;
2558;SDS011;1289;53.488;10.006;2023-10-31T01:32:30;13.53;;;9.93;;
2558;SDS011;1289;53.488;10.006;2023-10-31T01:34:58;11.90;;;8.60;;
2558;SDS011;1289;53.488;10.006;2023-10-31T01:37:25;12.40;;;9.83;;
2558;SDS011;1289;53.488;10.006;2023-10-31T01:39:53;9.67;;;8.87;;
2558;SDS011;1289;53.488;10.006;2023-10-31T01:42:19;13.37;;;9.73;;
2558;SDS011;1289;53.488;10.006;2023-10-31T01:44:46;9.97;;;8.93;;
2558;SDS011;1289;53.488;10.006;2023-10-31T01:47:13;11.27;;;8.57;;
2558;SDS011;1289;53.488;10.006;2023-10-31T01:49:40;12.93;;;8.80;;
2558;SDS011;1289;53.488;10.006;2023-10-31T01:52:08;9.60;;;8.43;;
2558;SDS011;1289;53.488;10.006;2023-10-31T01:54:34;9.57;;;8.53;;
2558;SDS011;1289;53.488;10.006;2023-10-31T01:57:01;9.83;;;8.83;;
2558;SDS011;1289;53.488;10.006;2023-10-31T01:59:30;11.00;;;9.90;;
2558;SDS011;1289;53.488;10.006;2023-10-31T02:01:57;11.30;;;8.87;;
2558;SDS011;1289;53.488;10.006;2023-10-31T02:04:23;9.93;;;8.87;;
2558;SDS011;1289;53.488;10.006;2023-10-31T02:06:51;11.30;;;9.30;;
2558;SDS011;1289;53.488;10.006;2023-10-31T02:09:19;12.70;;;9.10;;
2558;SDS011;1289;53.488;10.006;2023-10-31T02:11:49;11.60;;;8.20;;
2558;SDS011;1289;53.488;10.006;2023-10-31T02:14:15;14.47;;;9.23;;
2558;SDS011;1289;53.488;10.006;2023-10-31T02:16:42;9.90;;;8.60;;
2558;SDS011;1289;53.488;10.006;2023-10-31T02:19:08;11.90;;;9.70;;
2558;SDS011;1289;53.488;10.006;2023-10-31T02:21:38;11.43;;;9.67;;
2558;SDS011;1289;53.488;10.006;2023-10-31T02:24:06;10.40;;;8.20;;
2558;SDS011;1289;53.488;10.006;2023-10-31T02:26:33;12.87;;;9.70;;
2558;SDS011;1289;53.488;10.006;2023-10-31T02:29:01;14.30;;;9.53;;
2558;SDS011;1289;53.488;10.006;2023-10-31T02:31:28;12.63;;;10.70;;
2558;SDS011;1289;53.488;10.006;2023-10-31T02:33:54;10.10;;;9.10;;
2558;SDS011;1289;53.488;10.006;2023-10-31T02:36:21;11.80;;;9.77;;
2558;SDS011;1289;53.488;10.006;2023-10-31T02:38:49;11.13;;;10.03;;
2558;SDS011;1289;53.488;10.006;2023-10-31T02:41:16;10.40;;;9.40;;
2558;SDS011;1289;53.488;10.006;2023-10-31T02:43:43;11.30;;;10.00;;
2558;SDS011;1289;53.488;10.006;2023-10-31T02:46:09;13.50;;;10.20;;
2558;SDS011;1289;53.488;10.006;2023-10-31T02:48:37;10.80;;;9.70;;
2558;SDS011;1289;53.488;10.006;2023-10-31T02:51:06;13.23;;;10.03;;
2558;SDS011;1289;53.488;10.006;2023-10-31T02:53:33;10.23;;;8.87;;
2558;SDS011;1289;53.488;10.006;2023-10-31T02:56:01;15.13;;;9.67;;
2558;SDS011;1289;53.488;10.006;2023-10-31T02:58:27;11.60;;;10.40;;
2558;SDS011;1289;53.488;10.006;2023-10-31T03:00:54;10.87;;;9.87;;
2558;SDS011;1289;53.488;10.006;2023-10-31T03:03:21;13.57;;;10.23;;
2558;SDS011;1289;53.488;10.006;2023-10-31T03:05:47;10.63;;;9.30;;
2558;SDS011;1289;53.488;10.006;2023-10-31T03:08:15;10.47;;;9.43;;
2558;SDS011;1289;53.488;10.006;2023-10-31T03:10:46;10.20;;;9.30;;
2558;SDS011;1289;53.488;10.006;2023-10-31T03:13:17;14.20;;;11.70;;
2558;SDS011;1289;53.488;10.006;2023-10-31T03:15:45;11.83;;;9.63;;
2558;SDS011;1289;53.488;10.006;2023-10-31T03:18:13;11.33;;;9.90;;
2558;SDS011;1289;53.488;10.006;2023-10-31T03:20:40;12.20;;;9.67;;
2558;SDS011;1289;53.488;10.006;2023-10-31T03:23:09;13.67;;;9.80;;
2558;SDS011;1289;53.488;10.006;2023-10-31T03:25:36;10.67;;;9.60;;
2558;SDS011;1289;53.488;10.006;2023-10-31T03:28:03;11.50;;;10.30;;
2558;SDS011;1289;53.488;10.006;2023-10-31T03:30:31;12.83;;;9.40;;
2558;SDS011;1289;53.488;10.006;2023-10-31T03:32:58;12.07;;;9.90;;
2558;SDS011;1289;53.488;10.006;2023-10-31T03:35:24;12.73;;;10.70;;
2558;SDS011;1289;53.488;10.006;2023-10-31T03:37:51;11.17;;;8.50;;
2558;SDS011;1289;53.488;10.006;2023-10-31T03:40:17;10.33;;;9.20;;
2558;SDS011;1289;53.488;10.006;2023-10-31T03:42:44;10.50;;;9.20;;
2558;SDS011;1289;53.488;10.006;2023-10-31T03:45:11;10.37;;;9.37;;
2558;SDS011;1289;53.488;10.006;2023-10-31T03:47:39;12.70;;;11.40;;
2558;SDS011;1289;53.488;10.006;2023-10-31T03:50:06;12.67;;;9.47;;
2558;SDS011;1289;53.488;10.006;2023-10-31T03:52:34;12.03;;;9.07;;
2558;SDS011;1289;53.488;10.006;2023-10-31T03:55:01;10.90;;;9.80;;
2558;SDS011;1289;53.488;10.006;2023-10-31T03:57:28;10.03;;;9.03;;
2558;SDS011;1289;53.488;10.006;2023-10-31T03:59:54;14.77;;;9.93;;
2558;SDS011;1289;53.488;10.006;2023-10-31T04:02:21;17.13;;;10.60;;
2558;SDS011;1289;53.488;10.006;2023-10-31T04:04:49;12.30;;;9.90;;
2558;SDS011;1289;53.488;10.006;2023-10-31T04:07:18;15.93;;;10.33;;
2558;SDS011;1289;53.488;10.006;2023-10-31T04:09:44;11.13;;;9.63;;
2558;SDS011;1289;53.488;10.006;2023-10-31T04:12:11;10.03;;;8.93;;
2558;SDS011;1289;53.488;10.006;2023-10-31T04:14:38;9.67;;;8.83;;
2558;SDS011;1289;53.488;10.006;2023-10-31T04:17:04;9.70;;;8.70;;
2558;SDS011;1289;53.488;10.006;2023-10-31T04:19:31;12.50;;;9.33;;
2558;SDS011;1289;53.488;10.006;2023-10-31T04:21:59;11.57;;;9.30;;
2558;SDS011;1289;53.488;10.006;2023-10-31T04:24:25;11.30;;;9.70;;
2558;SDS011;1289;53.488;10.006;2023-10-31T04:26:52;10.00;;;9.10;;
2558;SDS011;1289;53.488;10.006;2023-10-31T04:29:18;11.13;;;9.50;;
2558;SDS011;1289;53.488;10.006;2023-10-31T04:31:45;9.53;;;8.50;;
2558;SDS011;1289;53.488;10.006;2023-10-31T04:34:11;8.50;;;7.70;;
2558;SDS011;1289;53.488;10.006;2023-10-31T04:36:38;9.00;;;8.20;;
2558;SDS011;1289;53.488;10.006;2023-10-31T04:39:07;9.13;;;8.23;;
2558;SDS011;1289;53.488;10.006;2023-10-31T04:41:33;9.00;;;8.10;;
2558;SDS011;1289;53.488;10.006;2023-10-31T04:44:00;8.60;;;7.67;;
2558;SDS011;1289;53.488;10.006;2023-10-31T04:46:28;10.70;;;8.57;;
2558;SDS011;1289;53.488;10.006;2023-10-31T04:48:54;8.67;;;7.33;;
2558;SDS011;1289;53.488;10.006;2023-10-31T04:51:21;9.70;;;8.70;;
2558;SDS011;1289;53.488;10.006;2023-10-31T04:53:47;8.13;;;7.43;;
2558;SDS011;1289;53.488;10.006;2023-10-31T04:56:15;8.40;;;7.60;;
2558;SDS011;1289;53.488;10.006;2023-10-31T04:58:43;7.70;;;7.10;;
2558;SDS011;1289;53.488;10.006;2023-10-31T05:01:09;8.80;;;6.97;;
2558;SDS011;1289;53.488;10.006;2023-10-31T05:03:37;8.47;;;7.60;;
2558;SDS011;1289;53.488;10.006;2023-10-31T05:06:04;8.27;;;7.57;;
2558;SDS011;1289;53.488;10.006;2023-10-31T05:08:31;8.30;;;7.10;;
2558;SDS011;1289;53.488;10.006;2023-10-31T05:10:57;8.77;;;8.07;;
2558;SDS011;1289;53.488;10.006;2023-10-31T05:13:26;9.33;;;8.43;;
2558;SDS011;1289;53.488;10.006;2023-10-31T05:15:52;9.60;;;7.63;;
2558;SDS011;1289;53.488;10.006;2023-10-31T05:18:19;8.93;;;8.07;;
2558;SDS011;1289;53.488;10.006;2023-10-31T05:20:46;9.10;;;8.20;;
2558;SDS011;1289;53.488;10.006;2023-10-31T05:23:13;8.20;;;7.50;;
2558;SDS011;1289;53.488;10.006;2023-10-31T05:25:39;9.87;;;8.87;;
2558;SDS011;1289;53.488;10.006;2023-10-31T05:28:06;8.97;;;8.13;;
2558;SDS011;1289;53.488;10.006;2023-10-31T05:30:34;9.30;;;7.90;;
2558;SDS011;1289;53.488;10.006;2023-10-31T05:33:00;11.63;;;8.17;;
2558;SDS011;1289;53.488;10.006;2023-10-31T05:35:27;10.93;;;9.17;;
2558;SDS011;1289;53.488;10.006;2023-10-31T05:37:53;9.87;;;8.83;;
2558;SDS011;1289;53.488;10.006;2023-10-31T05:40:20;8.60;;;7.80;;
2558;SDS011;1289;53.488;10.006;2023-10-31T05:42:50;8.80;;;7.87;;
2558;SDS011;1289;53.488;10.006;2023-10-31T05:45:17;10.27;;;8.83;;
2558;SDS011;1289;53.488;10.006;2023-10-31T05:47:45;10.10;;;9.20;;
2558;SDS011;1289;53.488;10.006;2023-10-31T05:50:11;9.90;;;9.00;;
2558;SDS011;1289;53.488;10.006;2023-10-31T05:52:38;10.00;;;9.00;;
2558;SDS011;1289;53.488;10.006;2023-10-31T05:55:05;10.60;;;9.60;;
2558;SDS011;1289;53.488;10.006;2023-10-31T05:57:32;10.10;;;9.00;;
2558;SDS011;1289;53.488;10.006;2023-10-31T05:59:59;10.60;;;9.43;;
2558;SDS011;1289;53.488;10.006;2023-10-31T06:02:26;11.17;;;10.07;;
2558;SDS011;1289;53.488;10.006;2023-10-31T06:04:55;11.70;;;10.60;;
2558;SDS011;1289;53.488;10.006;2023-10-31T06:07:22;11.03;;;9.93;;
2558;SDS011;1289;53.488;10.006;2023-10-31T06:09:48;12.70;;;9.77;;
2558;SDS011;1289;53.488;10.006;2023-10-31T06:12:15;11.00;;;9.90;;
2558;SDS011;1289;53.488;10.006;2023-10-31T06:14:42;12.13;;;10.37;;
2558;SDS011;1289;53.488;10.006;2023-10-31T06:17:08;11.80;;;10.10;;
2558;SDS011;1289;53.488;10.006;2023-10-31T06:19:35;10.97;;;9.87;;
2558;SDS011;1289;53.488;10.006;2023-10-31T06:22:04;12.00;;;10.50;;
2558;SDS011;1289;53.488;10.006;2023-10-31T06:24:31;13.07;;;11.67;;
2558;SDS011;1289;53.488;10.006;2023-10-31T06:26:57;13.03;;;11.20;;
2558;SDS011;1289;53.488;10.006;2023-10-31T06:29:24;9.97;;;8.97;;
2558;SDS011;1289;53.488;10.006;2023-10-31T06:31:51;11.50;;;10.20;;
2558;SDS011;1289;53.488;10.006;2023-10-31T06:34:17;11.60;;;9.40;;
2558;SDS011;1289;53.488;10.006;2023-10-31T06:36:44;11.00;;;9.13;;
2558;SDS011;1289;53.488;10.006;2023-10-31T06:39:12;10.10;;;9.10;;
2558;SDS011;1289;53.488;10.006;2023-10-31T06:41:39;10.67;;;9.57;;
2558;SDS011;1289;53.488;10.006;2023-10-31T06:44:05;12.40;;;8.80;;
2558;SDS011;1289;53.488;10.006;2023-10-31T06:46:32;7.30;;;6.57;;
2558;SDS011;1289;53.488;10.006;2023-10-31T06:48:58;7.07;;;6.43;;
2558;SDS011;1289;53.488;10.006;2023-10-31T06:51:25;7.00;;;6.23;;
2558;SDS011;1289;53.488;10.006;2023-10-31T06:53:51;7.10;;;6.50;;
2558;SDS011;1289;53.488;10.006;2023-10-31T06:56:19;4.80;;;4.40;;
2558;SDS011;1289;53.488;10.006;2023-10-31T06:58:46;4.67;;;4.30;;
2558;SDS011;1289;53.488;10.006;2023-10-31T07:01:12;4.93;;;3.80;;
2558;SDS011;1289;53.488;10.006;2023-10-31T07:03:43;3.97;;;3.67;;
2558;SDS011;1289;53.488;10.006;2023-10-31T07:06:10;4.60;;;4.20;;
2558;SDS011;1289;53.488;10.006;2023-10-31T07:08:36;5.40;;;4.50;;
2558;SDS011;1289;53.488;10.006;2023-10-31T07:11:03;5.80;;;4.83;;
2558;SDS011;1289;53.488;10.006;2023-10-31T07:13:31;8.93;;;8.03;;
2558;SDS011;1289;53.488;10.006;2023-10-31T07:15:58;9.13;;;8.33;;
2558;SDS011;1289;53.488;10.006;2023-10-31T07:18:24;12.13;;;8.97;;
2558;SDS011;1289;53.488;10.006;2023-10-31T07:20:51;12.57;;;9.40;;
2558;SDS011;1289;53.488;10.006;2023-10-31T07:23:17;10.60;;;9.57;;
2558;SDS011;1289;53.488;10.006;2023-10-31T07:25:44;13.80;;;11.90;;
2558;SDS011;1289;53.488;10.006;2023-10-31T07:28:10;12.00;;;9.73;;
2558;SDS011;1289;53.488;10.006;2023-10-31T07:30:38;12.50;;;11.17;;
2558;SDS011;1289;53.488;10.006;2023-10-31T07:33:05;13.90;;;11.17;;
2558;SDS011;1289;53.488;10.006;2023-10-31T07:35:32;11.03;;;9.93;;
2558;SDS011;1289;53.488;10.006;2023-10-31T07:37:59;11.23;;;10.00;;
2558;SDS011;1289;53.488;10.006;2023-10-31T07:40:25;10.53;;;9.43;;
2558;SDS011;1289;53.488;10.006;2023-10-31T07:42:52;8.37;;;7.57;;
2558;SDS011;1289;53.488;10.006;2023-10-31T07:45:18;6.87;;;6.27;;
2558;SDS011;1289;53.488;10.006;2023-10-31T07:47:46;7.27;;;6.57;;
2558;SDS011;1289;53.488;10.006;2023-10-31T07:50:13;5.43;;;4.93;;
2558;SDS011;1289;53.488;10.006;2023-10-31T07:52:39;4.60;;;4.20;;
2558;SDS011;1289;53.488;10.006;2023-10-31T07:55:07;4.07;;;3.77;;
2558;SDS011;1289;53.488;10.006;2023-10-31T07:57:33;3.70;;;3.40;;
2558;SDS011;1289;53.488;10.006;2023-10-31T08:00:00;3.20;;;2.90;;
2558;SDS011;1289;53.488;10.006;2023-10-31T08:02:37;4.07;;;2.57;;
2558;SDS011;1289;53.488;10.006;2023-10-31T08:05:06;2.70;;;2.50;;
2558;SDS011;1289;53.488;10.006;2023-10-31T08:07:35;2.40;;;2.20;;
2558;SDS011;1289;53.488;10.006;2023-10-31T08:10:01;3.27;;;2.40;;
2558;SDS011;1289;53.488;10.006;2023-10-31T08:12:28;2.80;;;1.90;;
2558;SDS011;1289;53.488;10.006;2023-10-31T08:14:55;2.20;;;2.00;;
2558;SDS011;1289;53.488;10.006;2023-10-31T08:17:23;2.00;;;1.90;;
2558;SDS011;1289;53.488;10.006;2023-10-31T08:19:50;2.20;;;2.00;;
2558;SDS011;1289;53.488;10.006;2023-10-31T08:22:18;1.77;;;1.67;;
2558;SDS011;1289;53.488;10.006;2023-10-31T08:24:45;1.97;;;1.87;;
2558;SDS011;1289;53.488;10.006;2023-10-31T08:27:11;2.00;;;1.80;;
2558;SDS011;1289;53.488;10.006;2023-10-31T08:29:38;1.70;;;1.60;;
2558;SDS011;1289;53.488;10.006;2023-10-31T08:32:05;2.20;;;2.00;;
2558;SDS011;1289;53.488;10.006;2023-10-31T08:34:32;2.17;;;1.80;;
2558;SDS011;1289;53.488;10.006;2023-10-31T08:36:58;4.63;;;2.13;;
2558;SDS011;1289;53.488;10.006;2023-10-31T08:39:27;2.07;;;1.87;;
2558;SDS011;1289;53.488;10.006;2023-10-31T08:41:54;3.30;;;1.93;;
2558;SDS011;1289;53.488;10.006;2023-10-31T08:44:22;3.80;;;1.90;;
2558;SDS011;1289;53.488;10.006;2023-10-31T08:46:48;1.90;;;1.80;;
2558;SDS011;1289;53.488;10.006;2023-10-31T08:49:15;2.53;;;1.87;;
2558;SDS011;1289;53.488;10.006;2023-10-31T08:51:42;1.90;;;1.80;;
2558;SDS011;1289;53.488;10.006;2023-10-31T08:54:10;2.03;;;1.70;;
2558;SDS011;1289;53.488;10.006;2023-10-31T08:56:38;1.60;;;1.50;;
2558;SDS011;1289;53.488;10.006;2023-10-31T08:59:04;1.57;;;1.47;;
2558;SDS011;1289;53.488;10.006;2023-10-31T09:01:31;1.90;;;1.67;;
2558;SDS011;1289;53.488;10.006;2023-10-31T09:03:58;1.70;;;1.60;;
2558;SDS011;1289;53.488;10.006;2023-10-31T09:06:25;1.73;;;1.63;;
2558;SDS011;1289;53.488;10.006;2023-10-31T09:08:52;2.00;;;1.90;;
2558;SDS011;1289;53.488;10.006;2023-10-31T09:11:19;1.57;;;1.47;;
2558;SDS011;1289;53.488;10.006;2023-10-31T09:13:47;2.10;;;1.90;;
2558;SDS011;1289;53.488;10.006;2023-10-31T09:16:13;4.03;;;2.20;;
2558;SDS011;1289;53.488;10.006;2023-10-31T09:18:40;1.73;;;1.63;;
2558;SDS011;1289;53.488;10.006;2023-10-31T09:21:08;2.30;;;1.80;;
2558;SDS011;1289;53.488;10.006;2023-10-31T09:23:35;1.80;;;1.70;;
2558;SDS011;1289;53.488;10.006;2023-10-31T09:26:01;1.70;;;1.60;;
2558;SDS011;1289;53.488;10.006;2023-10-31T09:28:28;2.00;;;1.77;;
2558;SDS011;1289;53.488;10.006;2023-10-31T09:30:56;1.70;;;1.60;;
2558;SDS011;1289;53.488;10.006;2023-10-31T09:33:25;2.17;;;2.00;;
2558;SDS011;1289;53.488;10.006;2023-10-31T09:35:51;2.30;;;1.80;;
2558;SDS011;1289;53.488;10.006;2023-10-31T09:38:18;3.03;;;1.90;;
2558;SDS011;1289;53.488;10.006;2023-10-31T09:40:44;2.87;;;2.30;;
2558;SDS011;1289;53.488;10.006;2023-10-31T09:43:11;2.20;;;2.00;;
2558;SDS011;1289;53.488;10.006;2023-10-31T09:45:37;3.60;;;2.40;;
2558;SDS011;1289;53.488;10.006;2023-10-31T09:48:05;4.60;;;2.27;;
2558;SDS011;1289;53.488;10.006;2023-10-31T09:50:32;4.33;;;2.10;;
2558;SDS011;1289;53.488;10.006;2023-10-31T09:52:59;2.00;;;1.80;;
2558;SDS011;1289;53.488;10.006;2023-10-31T09:55:26;3.63;;;2.20;;
2558;SDS011;1289;53.488;10.006;2023-10-31T09:57:53;2.33;;;2.10;;
2558;SDS011;1289;53.488;10.006;2023-10-31T10:00:20;1.93;;;1.83;;
2558;SDS011;1289;53.488;10.006;2023-10-31T10:02:47;2.60;;;2.40;;
2558;SDS011;1289;53.488;10.006;2023-10-31T10:05:15;2.27;;;2.13;;
2558;SDS011;1289;53.488;10.006;2023-10-31T10:07:42;2.37;;;2.20;;
2558;SDS011;1289;53.488;10.006;2023-10-31T10:10:10;2.63;;;2.43;;
2558;SDS011;1289;53.488;10.006;2023-10-31T10:12:37;3.67;;;2.33;;
2558;SDS011;1289;53.488;10.006;2023-10-31T10:15:04;3.00;;;2.67;;
2558;SDS011;1289;53.488;10.006;2023-10-31T10:17:31;2.67;;;2.47;;
2558;SDS011;1289;53.488;10.006;2023-10-31T10:20:05;2.50;;;2.30;;
2558;SDS011;1289;53.488;10.006;2023-10-31T10:22:37;2.60;;;2.40;;
2558;SDS011;1289;53.488;10.006;2023-10-31T10:25:05;2.70;;;2.50;;
2558;SDS011;1289;53.488;10.006;2023-10-31T10:27:32;3.80;;;2.67;;
2558;SDS011;1289;53.488;10.006;2023-10-31T10:29:59;2.97;;;2.30;;
2558;SDS011;1289;53.488;10.006;2023-10-31T10:32:25;2.63;;;2.43;;
2558;SDS011;1289;53.488;10.006;2023-10-31T10:34:52;2.60;;;2.40;;
2558;SDS011;1289;53.488;10.006;2023-10-31T10:37:19;2.70;;;2.50;;
2558;SDS011;1289;53.488;10.006;2023-10-31T10:39:47;3.07;;;2.63;;
2558;SDS011;1289;53.488;10.006;2023-10-31T10:42:15;6.60;;;2.97;;
2558;SDS011;1289;53.488;10.006;2023-10-31T10:44:44;3.00;;;2.80;;
2558;SDS011;1289;53.488;10.006;2023-10-31T10:47:12;3.10;;;2.90;;
2558;SDS011;1289;53.488;10.006;2023-10-31T10:49:41;2.83;;;2.63;;
2558;SDS011;1289;53.488;10.006;2023-10-31T10:52:12;8.33;;;3.10;;
2558;SDS011;1289;53.488;10.006;2023-10-31T10:54:44;3.53;;;3.33;;
2558;SDS011;1289;53.488;10.006;2023-10-31T10:57:15;3.10;;;2.70;;
2558;SDS011;1289;53.488;10.006;2023-10-31T10:59:49;4.97;;;2.90;;
2558;SDS011;1289;53.488;10.006;2023-10-31T11:02:17;2.87;;;2.60;;
2558;SDS011;1289;53.488;10.006;2023-10-31T11:04:44;7.50;;;3.30;;
2558;SDS011;1289;53.488;10.006;2023-10-31T11:07:11;3.70;;;2.67;;
2558;SDS011;1289;53.488;10.006;2023-10-31T11:09:38;2.37;;;2.17;;
2558;SDS011;1289;53.488;10.006;2023-10-31T11:12:06;4.53;;;2.50;;
2558;SDS011;1289;53.488;10.006;2023-10-31T11:14:36;3.87;;;2.83;;
2558;SDS011;1289;53.488;10.006;2023-10-31T11:17:04;2.73;;;2.37;;
2558;SDS011;1289;53.488;10.006;2023-10-31T11:19:33;4.43;;;3.10;;
2558;SDS011;1289;53.488;10.006;2023-10-31T11:22:01;3.60;;;2.60;;
2558;SDS011;1289;53.488;10.006;2023-10-31T11:24:29;3.03;;;2.83;;
2558;SDS011;1289;53.488;10.006;2023-10-31T11:26:58;3.80;;;2.87;;
2558;SDS011;1289;53.488;10.006;2023-10-31T11:29:26;2.60;;;2.40;;
2558;SDS011;1289;53.488;10.006;2023-10-31T11:31:55;2.63;;;2.40;;
2558;SDS011;1289;53.488;10.006;2023-10-31T11:34:22;2.23;;;2.03;;
2558;SDS011;1289;53.488;10.006;2023-10-31T11:36:50;2.73;;;2.53;;
2558;SDS011;1289;53.488;10.006;2023-10-31T11:39:18;5.60;;;2.60;;
2558;SDS011;1289;53.488;10.006;2023-10-31T11:41:48;2.50;;;2.30;;
2558;SDS011;1289;53.488;10.006;2023-10-31T11:44:15;2.67;;;2.47;;
2558;SDS011;1289;53.488;10.006;2023-10-31T11:46:42;3.67;;;2.53;;
2558;SDS011;1289;53.488;10.006;2023-10-31T11:49:14;2.40;;;2.20;;
2558;SDS011;1289;53.488;10.006;2023-10-31T11:51:40;4.13;;;2.60;;
2558;SDS011;1289;53.488;10.006;2023-10-31T11:54:08;2.20;;;2.00;;
2558;SDS011;1289;53.488;10.006;2023-10-31T11:56:35;2.13;;;2.00;;
2558;SDS011;1289;53.488;10.006;2023-10-31T11:59:02;2.70;;;2.50;;
2558;SDS011;1289;53.488;10.006;2023-10-31T12:01:29;2.50;;;2.20;;
2558;SDS011;1289;53.488;10.006;2023-10-31T12:03:56;2.10;;;2.00;;
2558;SDS011;1289;53.488;10.006;2023-10-31T12:06:24;5.23;;;2.23;;
2558;SDS011;1289;53.488;10.006;2023-10-31T12:08:50;3.80;;;2.00;;
2558;SDS011;1289;53.488;10.006;2023-10-31T12:11:18;4.20;;;1.97;;
2558;SDS011;1289;53.488;10.006;2023-10-31T12:13:53;2.80;;;2.50;;
2558;SDS011;1289;53.488;10.006;2023-10-31T12:16:22;4.33;;;2.93;;
2558;SDS011;1289;53.488;10.006;2023-10-31T12:18:53;2.97;;;2.10;;
2558;SDS011;1289;53.488;10.006;2023-10-31T12:21:34;2.40;;;2.20;;
2558;SDS011;1289;53.488;10.006;2023-10-31T12:24:03;3.20;;;2.63;;
2558;SDS011;1289;53.488;10.006;2023-10-31T12:26:31;2.47;;;2.27;;
2558;SDS011;1289;53.488;10.006;2023-10-31T12:29:06;2.00;;;1.90;;
2558;SDS011;1289;53.488;10.006;2023-10-31T12:31:38;2.27;;;2.07;;
2558;SDS011;1289;53.488;10.006;2023-10-31T12:34:06;3.10;;;2.33;;
2558;SDS011;1289;53.488;10.006;2023-10-31T12:36:33;3.23;;;2.30;;
2558;SDS011;1289;53.488;10.006;2023-10-31T12:39:01;3.40;;;2.10;;
2558;SDS011;1289;53.488;10.006;2023-10-31T12:41:28;2.40;;;2.20;;
2558;SDS011;1289;53.488;10.006;2023-10-31T12:43:55;2.77;;;2.10;;
2558;SDS011;1289;53.488;10.006;2023-10-31T12:46:25;3.03;;;2.83;;
2558;SDS011;1289;53.488;10.006;2023-10-31T12:48:53;2.40;;;2.20;;
2558;SDS011;1289;53.488;10.006;2023-10-31T12:51:19;5.90;;;2.60;;
2558;SDS011;1289;53.488;10.006;2023-10-31T12:53:49;5.40;;;2.20;;
2558;SDS011;1289;53.488;10.006;2023-10-31T12:59:02;2.57;;;2.27;;
2558;SDS011;1289;53.488;10.006;2023-10-31T13:01:28;2.93;;;2.23;;
2558;SDS011;1289;53.488;10.006;2023-10-31T13:03:57;3.77;;;2.47;;
2558;SDS011;1289;53.488;10.006;2023-10-31T13:06:23;2.60;;;2.03;;
2558;SDS011;1289;53.488;10.006;2023-10-31T13:08:51;3.40;;;2.30;;
2558;SDS011;1289;53.488;10.006;2023-10-31T13:11:18;3.30;;;2.30;;
2558;SDS011;1289;53.488;10.006;2023-10-31T13:13:50;2.87;;;2.63;;
2558;SDS011;1289;53.488;10.006;2023-10-31T13:16:17;2.03;;;1.83;;
2558;SDS011;1289;53.488;10.006;2023-10-31T13:18:43;2.30;;;2.10;;
2558;SDS011;1289;53.488;10.006;2023-10-31T13:21:10;2.73;;;2.23;;
2558;SDS011;1289;53.488;10.006;2023-10-31T13:23:39;2.10;;;1.90;;
2558;SDS011;1289;53.488;10.006;2023-10-31T13:26:09;2.40;;;2.20;;
2558;SDS011;1289;53.488;10.006;2023-10-31T13:28:36;2.90;;;2.33;;
2558;SDS011;1289;53.488;10.006;2023-10-31T13:31:04;2.63;;;2.00;;
2558;SDS011;1289;53.488;10.006;2023-10-31T13:33:31;3.80;;;2.30;;
2558;SDS011;1289;53.488;10.006;2023-10-31T13:35:58;2.50;;;2.30;;
2558;SDS011;1289;53.488;10.006;2023-10-31T13:38:24;2.50;;;2.30;;
2558;SDS011;1289;53.488;10.006;2023-10-31T13:40:51;2.33;;;2.13;;
2558;SDS011;1289;53.488;10.006;2023-10-31T13:43:19;2.40;;;2.20;;
2558;SDS011;1289;53.488;10.006;2023-10-31T13:45:45;2.30;;;2.10;;
2558;SDS011;1289;53.488;10.006;2023-10-31T13:48:12;2.20;;;2.00;;
2558;SDS011;1289;53.488;10.006;2023-10-31T13:50:39;5.13;;;4.33;;
2558;SDS011;1289;53.488;10.006;2023-10-31T13:53:06;6.47;;;5.87;;
2558;SDS011;1289;53.488;10.006;2023-10-31T13:55:32;6.53;;;5.93;;
2558;SDS011;1289;53.488;10.006;2023-10-31T13:57:59;5.17;;;4.67;;
2558;SDS011;1289;53.488;10.006;2023-10-31T14:00:27;5.63;;;5.23;;
2558;SDS011;1289;53.488;10.006;2023-10-31T14:02:54;4.03;;;3.73;;
2558;SDS011;1289;53.488;10.006;2023-10-31T14:05:21;3.70;;;3.40;;
2558;SDS011;1289;53.488;10.006;2023-10-31T14:07:48;3.53;;;3.03;;
2558;SDS011;1289;53.488;10.006;2023-10-31T14:10:16;6.23;;;4.57;;
2558;SDS011;1289;53.488;10.006;2023-10-31T14:12:45;4.63;;;4.23;;
2558;SDS011;1289;53.488;10.006;2023-10-31T14:15:11;4.07;;;3.77;;
2558;SDS011;1289;53.488;10.006;2023-10-31T14:17:39;4.90;;;4.50;;
2558;SDS011;1289;53.488;10.006;2023-10-31T14:20:07;4.30;;;4.00;;
2558;SDS011;1289;53.488;10.006;2023-10-31T14:22:34;3.70;;;3.40;;
2558;SDS011;1289;53.488;10.006;2023-10-31T14:25:00;4.43;;;3.73;;
2558;SDS011;1289;53.488;10.006;2023-10-31T14:27:29;3.50;;;3.20;;
2558;SDS011;1289;53.488;10.006;2023-10-31T14:29:55;3.60;;;3.30;;
2558;SDS011;1289;53.488;10.006;2023-10-31T14:32:23;2.97;;;2.77;;
2558;SDS011;1289;53.488;10.006;2023-10-31T14:34:51;3.17;;;2.97;;
2558;SDS011;1289;53.488;10.006;2023-10-31T14:37:17;4.07;;;3.70;;
2558;SDS011;1289;53.488;10.006;2023-10-31T14:39:44;4.67;;;3.77;;
2558;SDS011;1289;53.488;10.006;2023-10-31T14:42:10;3.37;;;3.07;;
2558;SDS011;1289;53.488;10.006;2023-10-31T14:44:37;3.60;;;3.00;;
2558;SDS011;1289;53.488;10.006;2023-10-31T14:47:03;2.30;;;2.10;;
2558;SDS011;1289;53.488;10.006;2023-10-31T14:49:30;5.00;;;3.60;;
2558;SDS011;1289;53.488;10.006;2023-10-31T14:51:58;2.70;;;2.50;;
2558;SDS011;1289;53.488;10.006;2023-10-31T14:54:26;4.40;;;2.43;;
2558;SDS011;1289;53.488;10.006;2023-10-31T14:56:53;3.43;;;3.00;;
2558;SDS011;1289;53.488;10.006;2023-10-31T14:59:19;3.80;;;3.50;;